sensor_id;sensor_type;location;lat;lon;timestamp;P1;durP1;ratioP1;P2;durP2;ratioP2
49764;SDS011;35657;51.204;-4.130;2023-02-19T00:00:53;18.50;;;4.40;;
49764;SDS011;35657;51.204;-4.130;2023-02-19T00:03:19;10.77;;;3.55;;
49764;SDS011;35657;51.204;-4.130;2023-02-19T00:05:45;13.50;;;3.80;;
49764;SDS011;35657;51.204;-4.130;2023-02-19T00:08:10;18.38;;;4.20;;
49764;SDS011;35657;51.204;-4.130;2023-02-19T00:10:36;20.33;;;4.07;;
49764;SDS011;35657;51.204;-4.130;2023-02-19T00:13:01;14.55;;;3.53;;
49764;SDS011;35657;51.204;-4.130;2023-02-19T00:15:27;18.90;;;3.78;;
49764;SDS011;35657;51.204;-4.130;2023-02-19T00:17:55;12.55;;;3.28;;
49764;SDS011;35657;51.204;-4.130;2023-02-19T00:20:21;10.35;;;2.53;;
49764;SDS011;35657;51.204;-4.130;2023-02-19T00:22:46;15.13;;;3.90;;
49764;SDS011;35657;51.204;-4.130;2023-02-19T00:25:12;15.57;;;3.83;;
49764;SDS011;35657;51.204;-4.130;2023-02-19T00:27:38;20.00;;;2.80;;
49764;SDS011;35657;51.204;-4.130;2023-02-19T00:30:04;36.58;;;3.80;;
49764;SDS011;35657;51.204;-4.130;2023-02-19T00:32:31;17.58;;;3.75;;
49764;SDS011;35657;51.204;-4.130;2023-02-19T00:34:56;9.52;;;2.75;;
49764;SDS011;35657;51.204;-4.130;2023-02-19T00:37:22;9.27;;;3.03;;
49764;SDS011;35657;51.204;-4.130;2023-02-19T00:39:47;22.05;;;2.88;;
49764;SDS011;35657;51.204;-4.130;2023-02-19T00:42:13;13.05;;;2.72;;
49764;SDS011;35657;51.204;-4.130;2023-02-19T00:44:39;14.48;;;3.58;;
49764;SDS011;35657;51.204;-4.130;2023-02-19T00:47:05;16.48;;;3.35;;
49764;SDS011;35657;51.204;-4.130;2023-02-19T00:49:30;8.35;;;1.65;;
49764;SDS011;35657;51.204;-4.130;2023-02-19T00:51:56;13.00;;;2.00;;
49764;SDS011;35657;51.204;-4.130;2023-02-19T00:54:22;6.57;;;1.75;;
49764;SDS011;35657;51.204;-4.130;2023-02-19T00:56:47;5.90;;;1.85;;
49764;SDS011;35657;51.204;-4.130;2023-02-19T00:59:14;5.95;;;1.55;;
49764;SDS011;35657;51.204;-4.130;2023-02-19T01:01:40;9.00;;;2.15;;
49764;SDS011;35657;51.204;-4.130;2023-02-19T01:04:08;12.07;;;1.98;;
49764;SDS011;35657;51.204;-4.130;2023-02-19T01:06:34;2.50;;;1.25;;
49764;SDS011;35657;51.204;-4.130;2023-02-19T01:09:00;3.58;;;1.08;;
49764;SDS011;35657;51.204;-4.130;2023-02-19T01:11:27;21.75;;;1.92;;
49764;SDS011;35657;51.204;-4.130;2023-02-19T01:13:55;12.18;;;1.95;;
49764;SDS011;35657;51.204;-4.130;2023-02-19T01:16:22;10.05;;;1.92;;
49764;SDS011;35657;51.204;-4.130;2023-02-19T01:18:51;12.82;;;2.47;;
49764;SDS011;35657;51.204;-4.130;2023-02-19T01:21:19;7.25;;;2.33;;
49764;SDS011;35657;51.204;-4.130;2023-02-19T01:23:47;9.68;;;4.20;;
49764;SDS011;35657;51.204;-4.130;2023-02-19T01:26:15;24.58;;;6.15;;
49764;SDS011;35657;51.204;-4.130;2023-02-19T01:28:43;11.25;;;5.40;;
49764;SDS011;35657;51.204;-4.130;2023-02-19T01:31:11;18.58;;;6.57;;
49764;SDS011;35657;51.204;-4.130;2023-02-19T01:33:38;11.88;;;5.10;;
49764;SDS011;35657;51.204;-4.130;2023-02-19T01:36:04;16.60;;;5.35;;
49764;SDS011;35657;51.204;-4.130;2023-02-19T01:38:31;17.40;;;5.07;;
49764;SDS011;35657;51.204;-4.130;2023-02-19T01:40:58;19.48;;;4.07;;
49764;SDS011;35657;51.204;-4.130;2023-02-19T01:43:28;19.85;;;4.47;;
49764;SDS011;35657;51.204;-4.130;2023-02-19T01:45:56;17.30;;;3.90;;
49764;SDS011;35657;51.204;-4.130;2023-02-19T01:48:24;18.38;;;4.70;;
49764;SDS011;35657;51.204;-4.130;2023-02-19T01:51:01;17.20;;;3.88;;
49764;SDS011;35657;51.204;-4.130;2023-02-19T01:53:34;18.05;;;3.72;;
49764;SDS011;35657;51.204;-4.130;2023-02-19T01:56:03;20.30;;;4.45;;
49764;SDS011;35657;51.204;-4.130;2023-02-19T01:58:32;18.70;;;4.75;;
49764;SDS011;35657;51.204;-4.130;2023-02-19T02:00:59;20.27;;;3.55;;
49764;SDS011;35657;51.204;-4.130;2023-02-19T02:03:27;17.00;;;3.65;;
49764;SDS011;35657;51.204;-4.130;2023-02-19T02:05:55;13.60;;;2.40;;
49764;SDS011;35657;51.204;-4.130;2023-02-19T02:08:40;10.20;;;4.50;;
49764;SDS011;35657;51.204;-4.130;2023-02-19T02:11:25;18.17;;;4.50;;
49764;SDS011;35657;51.204;-4.130;2023-02-19T02:13:51;14.27;;;2.97;;
49764;SDS011;35657;51.204;-4.130;2023-02-19T02:16:53;12.63;;;2.90;;
49764;SDS011;35657;51.204;-4.130;2023-02-19T02:35:52;13.05;;;3.10;;
49764;SDS011;35657;51.204;-4.130;2023-02-19T02:38:42;15.68;;;2.95;;
49764;SDS011;35657;51.204;-4.130;2023-02-19T02:41:10;10.52;;;2.08;;
49764;SDS011;35657;51.204;-4.130;2023-02-19T02:43:37;16.83;;;2.67;;
49764;SDS011;35657;51.204;-4.130;2023-02-19T02:46:03;15.07;;;3.58;;
49764;SDS011;35657;51.204;-4.130;2023-02-19T02:56:35;10.05;;;3.08;;
49764;SDS011;35657;51.204;-4.130;2023-02-19T02:59:05;4.65;;;1.38;;
49764;SDS011;35657;51.204;-4.130;2023-02-19T03:04:29;7.50;;;1.75;;
49764;SDS011;35657;51.204;-4.130;2023-02-19T03:07:25;11.68;;;2.30;;
49764;SDS011;35657;51.204;-4.130;2023-02-19T03:09:54;6.95;;;1.83;;
49764;SDS011;35657;51.204;-4.130;2023-02-19T03:12:22;15.65;;;2.92;;
49764;SDS011;35657;51.204;-4.130;2023-02-19T03:15:09;14.32;;;2.55;;
49764;SDS011;35657;51.204;-4.130;2023-02-19T03:18:00;21.20;;;2.63;;
49764;SDS011;35657;51.204;-4.130;2023-02-19T03:20:49;17.88;;;1.70;;
49764;SDS011;35657;51.204;-4.130;2023-02-19T03:23:18;14.07;;;2.15;;
49764;SDS011;35657;51.204;-4.130;2023-02-19T03:26:06;10.70;;;2.20;;
49764;SDS011;35657;51.204;-4.130;2023-02-19T03:28:34;12.40;;;2.60;;
49764;SDS011;35657;51.204;-4.130;2023-02-19T03:31:23;16.73;;;1.88;;
49764;SDS011;35657;51.204;-4.130;2023-02-19T03:33:56;13.52;;;2.30;;
49764;SDS011;35657;51.204;-4.130;2023-02-19T03:36:26;7.20;;;2.17;;
49764;SDS011;35657;51.204;-4.130;2023-02-19T03:39:01;11.30;;;2.40;;
49764;SDS011;35657;51.204;-4.130;2023-02-19T03:41:35;10.75;;;3.05;;
49764;SDS011;35657;51.204;-4.130;2023-02-19T03:52:04;12.13;;;2.08;;
49764;SDS011;35657;51.204;-4.130;2023-02-19T03:54:40;15.27;;;2.20;;
49764;SDS011;35657;51.204;-4.130;2023-02-19T03:59:59;10.82;;;2.15;;
49764;SDS011;35657;51.204;-4.130;2023-02-19T04:05:23;8.30;;;2.30;;
49764;SDS011;35657;51.204;-4.130;2023-02-19T04:07:52;7.53;;;1.17;;
49764;SDS011;35657;51.204;-4.130;2023-02-19T04:10:22;12.95;;;2.00;;
49764;SDS011;35657;51.204;-4.130;2023-02-19T04:12:50;11.77;;;3.33;;
49764;SDS011;35657;51.204;-4.130;2023-02-19T04:15:22;8.60;;;1.58;;
49764;SDS011;35657;51.204;-4.130;2023-02-19T04:17:54;8.00;;;2.50;;
49764;SDS011;35657;51.204;-4.130;2023-02-19T04:20:22;9.27;;;2.00;;
49764;SDS011;35657;51.204;-4.130;2023-02-19T04:22:51;11.80;;;1.95;;
49764;SDS011;35657;51.204;-4.130;2023-02-19T04:25:17;6.75;;;2.08;;
49764;SDS011;35657;51.204;-4.130;2023-02-19T04:27:43;9.77;;;2.17;;
49764;SDS011;35657;51.204;-4.130;2023-02-19T04:30:10;8.05;;;2.33;;
49764;SDS011;35657;51.204;-4.130;2023-02-19T04:32:37;11.10;;;2.00;;
49764;SDS011;35657;51.204;-4.130;2023-02-19T04:35:03;15.85;;;2.35;;
49764;SDS011;35657;51.204;-4.130;2023-02-19T04:37:29;15.13;;;2.92;;
49764;SDS011;35657;51.204;-4.130;2023-02-19T04:39:55;10.00;;;2.15;;
49764;SDS011;35657;51.204;-4.130;2023-02-19T04:42:20;6.63;;;1.70;;
49764;SDS011;35657;51.204;-4.130;2023-02-19T04:44:46;11.02;;;2.42;;
49764;SDS011;35657;51.204;-4.130;2023-02-19T04:47:12;10.10;;;2.65;;
49764;SDS011;35657;51.204;-4.130;2023-02-19T04:49:37;13.35;;;2.75;;
49764;SDS011;35657;51.204;-4.130;2023-02-19T04:52:03;6.75;;;2.15;;
49764;SDS011;35657;51.204;-4.130;2023-02-19T04:54:29;9.73;;;1.92;;
49764;SDS011;35657;51.204;-4.130;2023-02-19T04:56:54;10.02;;;1.70;;
49764;SDS011;35657;51.204;-4.130;2023-02-19T04:59:21;6.80;;;1.63;;
49764;SDS011;35657;51.204;-4.130;2023-02-19T05:01:47;4.15;;;1.83;;
49764;SDS011;35657;51.204;-4.130;2023-02-19T05:04:12;11.60;;;2.33;;
49764;SDS011;35657;51.204;-4.130;2023-02-19T05:06:38;13.68;;;2.28;;
49764;SDS011;35657;51.204;-4.130;2023-02-19T05:09:04;12.52;;;2.28;;
49764;SDS011;35657;51.204;-4.130;2023-02-19T05:11:29;15.52;;;2.15;;
49764;SDS011;35657;51.204;-4.130;2023-02-19T05:13:55;7.57;;;2.08;;
49764;SDS011;35657;51.204;-4.130;2023-02-19T05:16:21;8.32;;;1.80;;
49764;SDS011;35657;51.204;-4.130;2023-02-19T05:18:46;5.40;;;1.77;;
49764;SDS011;35657;51.204;-4.130;2023-02-19T05:21:12;10.70;;;2.13;;
49764;SDS011;35657;51.204;-4.130;2023-02-19T05:23:39;6.07;;;2.08;;
49764;SDS011;35657;51.204;-4.130;2023-02-19T05:26:10;13.95;;;1.95;;
49764;SDS011;35657;51.204;-4.130;2023-02-19T05:28:37;7.07;;;2.42;;
49764;SDS011;35657;51.204;-4.130;2023-02-19T05:31:05;10.27;;;1.60;;
49764;SDS011;35657;51.204;-4.130;2023-02-19T05:33:32;10.18;;;2.53;;
49764;SDS011;35657;51.204;-4.130;2023-02-19T05:35:58;8.98;;;2.63;;
49764;SDS011;35657;51.204;-4.130;2023-02-19T05:38:28;12.90;;;1.90;;
49764;SDS011;35657;51.204;-4.130;2023-02-19T05:40:53;4.55;;;1.38;;
49764;SDS011;35657;51.204;-4.130;2023-02-19T05:43:19;13.63;;;2.20;;
49764;SDS011;35657;51.204;-4.130;2023-02-19T05:45:45;8.32;;;1.17;;
49764;SDS011;35657;51.204;-4.130;2023-02-19T05:48:10;12.05;;;1.75;;
49764;SDS011;35657;51.204;-4.130;2023-02-19T05:50:36;12.57;;;2.50;;
49764;SDS011;35657;51.204;-4.130;2023-02-19T05:53:03;18.95;;;2.92;;
49764;SDS011;35657;51.204;-4.130;2023-02-19T05:55:32;14.90;;;2.95;;
49764;SDS011;35657;51.204;-4.130;2023-02-19T05:57:59;15.68;;;2.40;;
49764;SDS011;35657;51.204;-4.130;2023-02-19T06:00:25;12.05;;;1.75;;
49764;SDS011;35657;51.204;-4.130;2023-02-19T06:02:52;7.35;;;1.65;;
49764;SDS011;35657;51.204;-4.130;2023-02-19T06:05:18;3.13;;;1.17;;
49764;SDS011;35657;51.204;-4.130;2023-02-19T06:07:45;3.92;;;1.17;;
49764;SDS011;35657;51.204;-4.130;2023-02-19T06:10:10;5.28;;;1.30;;
49764;SDS011;35657;51.204;-4.130;2023-02-19T06:12:37;13.30;;;1.75;;
49764;SDS011;35657;51.204;-4.130;2023-02-19T06:15:04;6.68;;;1.90;;
49764;SDS011;35657;51.204;-4.130;2023-02-19T06:17:30;7.07;;;1.42;;
49764;SDS011;35657;51.204;-4.130;2023-02-19T06:19:57;7.50;;;1.38;;
49764;SDS011;35657;51.204;-4.130;2023-02-19T06:22:23;5.40;;;1.38;;
49764;SDS011;35657;51.204;-4.130;2023-02-19T06:24:48;6.97;;;1.58;;
49764;SDS011;35657;51.204;-4.130;2023-02-19T06:27:14;9.38;;;1.65;;
49764;SDS011;35657;51.204;-4.130;2023-02-19T06:29:40;8.32;;;1.80;;
49764;SDS011;35657;51.204;-4.130;2023-02-19T06:32:06;8.07;;;1.27;;
49764;SDS011;35657;51.204;-4.130;2023-02-19T06:34:32;6.90;;;1.83;;
49764;SDS011;35657;51.204;-4.130;2023-02-19T06:36:58;7.63;;;2.30;;
49764;SDS011;35657;51.204;-4.130;2023-02-19T06:39:24;5.95;;;1.17;;
49764;SDS011;35657;51.204;-4.130;2023-02-19T06:41:53;4.38;;;1.58;;
49764;SDS011;35657;51.204;-4.130;2023-02-19T06:44:20;7.07;;;1.33;;
49764;SDS011;35657;51.204;-4.130;2023-02-19T06:46:46;7.13;;;1.75;;
49764;SDS011;35657;51.204;-4.130;2023-02-19T06:49:12;8.32;;;1.98;;
49764;SDS011;35657;51.204;-4.130;2023-02-19T06:51:39;6.30;;;1.10;;
49764;SDS011;35657;51.204;-4.130;2023-02-19T06:54:05;8.90;;;1.55;;
49764;SDS011;35657;51.204;-4.130;2023-02-19T06:56:34;9.98;;;1.40;;
49764;SDS011;35657;51.204;-4.130;2023-02-19T06:59:03;6.88;;;2.10;;
49764;SDS011;35657;51.204;-4.130;2023-02-19T07:01:31;7.03;;;1.50;;
49764;SDS011;35657;51.204;-4.130;2023-02-19T07:03:57;9.00;;;1.90;;
49764;SDS011;35657;51.204;-4.130;2023-02-19T07:06:23;7.05;;;1.63;;
49764;SDS011;35657;51.204;-4.130;2023-02-19T07:08:50;5.43;;;1.40;;
49764;SDS011;35657;51.204;-4.130;2023-02-19T07:11:17;9.25;;;1.60;;
49764;SDS011;35657;51.204;-4.130;2023-02-19T07:13:43;7.20;;;1.50;;
49764;SDS011;35657;51.204;-4.130;2023-02-19T07:16:10;6.95;;;1.30;;
49764;SDS011;35657;51.204;-4.130;2023-02-19T07:18:36;5.57;;;1.42;;
49764;SDS011;35657;51.204;-4.130;2023-02-19T07:21:04;11.25;;;2.80;;
49764;SDS011;35657;51.204;-4.130;2023-02-19T07:23:34;6.18;;;2.00;;
49764;SDS011;35657;51.204;-4.130;2023-02-19T07:26:00;7.10;;;1.13;;
49764;SDS011;35657;51.204;-4.130;2023-02-19T07:28:26;7.80;;;1.80;;
49764;SDS011;35657;51.204;-4.130;2023-02-19T07:30:52;4.15;;;1.10;;
49764;SDS011;35657;51.204;-4.130;2023-02-19T07:33:18;6.35;;;1.63;;
49764;SDS011;35657;51.204;-4.130;2023-02-19T07:35:47;11.63;;;2.00;;
49764;SDS011;35657;51.204;-4.130;2023-02-19T07:38:18;14.25;;;2.38;;
49764;SDS011;35657;51.204;-4.130;2023-02-19T07:40:52;10.05;;;1.77;;
49764;SDS011;35657;51.204;-4.130;2023-02-19T07:43:26;8.18;;;1.65;;
49764;SDS011;35657;51.204;-4.130;2023-02-19T07:45:55;9.45;;;1.30;;
49764;SDS011;35657;51.204;-4.130;2023-02-19T07:48:21;7.53;;;1.80;;
49764;SDS011;35657;51.204;-4.130;2023-02-19T07:50:50;9.73;;;2.35;;
49764;SDS011;35657;51.204;-4.130;2023-02-19T07:53:16;9.85;;;1.50;;
49764;SDS011;35657;51.204;-4.130;2023-02-19T07:55:42;7.57;;;1.20;;
49764;SDS011;35657;51.204;-4.130;2023-02-19T07:58:07;3.58;;;1.48;;
49764;SDS011;35657;51.204;-4.130;2023-02-19T08:00:33;6.43;;;1.52;;
49764;SDS011;35657;51.204;-4.130;2023-02-19T08:02:59;3.30;;;0.98;;
49764;SDS011;35657;51.204;-4.130;2023-02-19T08:05:32;4.22;;;1.00;;
49764;SDS011;35657;51.204;-4.130;2023-02-19T08:08:01;5.10;;;1.05;;
49764;SDS011;35657;51.204;-4.130;2023-02-19T08:10:29;6.85;;;1.85;;
49764;SDS011;35657;51.204;-4.130;2023-02-19T08:18:28;10.00;;;1.48;;
49764;SDS011;35657;51.204;-4.130;2023-02-19T08:20:56;9.35;;;1.85;;
49764;SDS011;35657;51.204;-4.130;2023-02-19T08:23:23;6.45;;;1.25;;
49764;SDS011;35657;51.204;-4.130;2023-02-19T08:25:49;6.10;;;1.27;;
49764;SDS011;35657;51.204;-4.130;2023-02-19T08:28:16;6.88;;;1.40;;
49764;SDS011;35657;51.204;-4.130;2023-02-19T08:30:44;7.88;;;1.42;;
49764;SDS011;35657;51.204;-4.130;2023-02-19T08:33:15;7.53;;;1.77;;
49764;SDS011;35657;51.204;-4.130;2023-02-19T08:35:42;8.15;;;1.60;;
49764;SDS011;35657;51.204;-4.130;2023-02-19T08:38:09;9.82;;;1.65;;
49764;SDS011;35657;51.204;-4.130;2023-02-19T08:40:36;10.88;;;3.30;;
49764;SDS011;35657;51.204;-4.130;2023-02-19T08:43:04;6.75;;;2.97;;
49764;SDS011;35657;51.204;-4.130;2023-02-19T08:45:31;4.47;;;1.83;;
49764;SDS011;35657;51.204;-4.130;2023-02-19T08:47:57;11.60;;;1.77;;
49764;SDS011;35657;51.204;-4.130;2023-02-19T08:50:23;8.02;;;1.38;;
49764;SDS011;35657;51.204;-4.130;2023-02-19T08:52:49;5.47;;;1.60;;
49764;SDS011;35657;51.204;-4.130;2023-02-19T08:55:15;3.70;;;1.35;;
49764;SDS011;35657;51.204;-4.130;2023-02-19T08:57:41;9.55;;;1.60;;
49764;SDS011;35657;51.204;-4.130;2023-02-19T09:00:07;3.45;;;1.25;;
49764;SDS011;35657;51.204;-4.130;2023-02-19T09:02:33;7.65;;;1.70;;
49764;SDS011;35657;51.204;-4.130;2023-02-19T09:04:59;7.22;;;1.55;;
49764;SDS011;35657;51.204;-4.130;2023-02-19T09:07:25;7.03;;;1.52;;
49764;SDS011;35657;51.204;-4.130;2023-02-19T09:09:51;12.68;;;1.83;;
49764;SDS011;35657;51.204;-4.130;2023-02-19T09:12:17;11.75;;;1.75;;
49764;SDS011;35657;51.204;-4.130;2023-02-19T09:14:43;10.10;;;2.60;;
49764;SDS011;35657;51.204;-4.130;2023-02-19T09:17:09;7.55;;;1.80;;
49764;SDS011;35657;51.204;-4.130;2023-02-19T09:19:35;12.10;;;2.08;;
49764;SDS011;35657;51.204;-4.130;2023-02-19T09:22:01;12.40;;;1.67;;
49764;SDS011;35657;51.204;-4.130;2023-02-19T09:24:28;9.85;;;1.58;;
49764;SDS011;35657;51.204;-4.130;2023-02-19T09:26:53;10.27;;;1.65;;
49764;SDS011;35657;51.204;-4.130;2023-02-19T09:29:20;12.15;;;1.70;;
49764;SDS011;35657;51.204;-4.130;2023-02-19T09:31:48;7.70;;;1.40;;
49764;SDS011;35657;51.204;-4.130;2023-02-19T09:34:13;9.77;;;1.52;;
49764;SDS011;35657;51.204;-4.130;2023-02-19T09:36:39;13.10;;;1.70;;
49764;SDS011;35657;51.204;-4.130;2023-02-19T09:39:06;8.75;;;2.03;;
49764;SDS011;35657;51.204;-4.130;2023-02-19T09:41:34;21.35;;;3.25;;
49764;SDS011;35657;51.204;-4.130;2023-02-19T09:44:09;7.32;;;1.20;;
49764;SDS011;35657;51.204;-4.130;2023-02-19T09:46:45;10.10;;;1.35;;
49764;SDS011;35657;51.204;-4.130;2023-02-19T09:49:20;8.90;;;1.00;;
49764;SDS011;35657;51.204;-4.130;2023-02-19T09:51:57;5.82;;;1.27;;
49764;SDS011;35657;51.204;-4.130;2023-02-19T09:54:30;7.15;;;1.95;;
49764;SDS011;35657;51.204;-4.130;2023-02-19T09:56:59;8.30;;;0.82;;
49764;SDS011;35657;51.204;-4.130;2023-02-19T09:59:28;7.05;;;1.27;;
49764;SDS011;35657;51.204;-4.130;2023-02-19T10:02:04;7.50;;;1.20;;
49764;SDS011;35657;51.204;-4.130;2023-02-19T10:04:41;5.05;;;0.85;;
49764;SDS011;35657;51.204;-4.130;2023-02-19T10:07:10;0.65;;;0.43;;
49764;SDS011;35657;51.204;-4.130;2023-02-19T10:09:44;9.98;;;1.48;;
49764;SDS011;35657;51.204;-4.130;2023-02-19T10:12:23;6.05;;;1.42;;
49764;SDS011;35657;51.204;-4.130;2023-02-19T10:14:51;5.93;;;1.52;;
49764;SDS011;35657;51.204;-4.130;2023-02-19T10:17:25;11.98;;;1.70;;
49764;SDS011;35657;51.204;-4.130;2023-02-19T10:19:56;8.25;;;1.50;;
49764;SDS011;35657;51.204;-4.130;2023-02-19T10:22:22;1.98;;;0.68;;
49764;SDS011;35657;51.204;-4.130;2023-02-19T10:24:50;5.85;;;0.82;;
49764;SDS011;35657;51.204;-4.130;2023-02-19T10:27:18;0.85;;;0.40;;
49764;SDS011;35657;51.204;-4.130;2023-02-19T10:29:45;3.95;;;0.55;;
49764;SDS011;35657;51.204;-4.130;2023-02-19T10:32:16;2.38;;;0.70;;
49764;SDS011;35657;51.204;-4.130;2023-02-19T10:34:45;2.38;;;1.02;;
49764;SDS011;35657;51.204;-4.130;2023-02-19T10:37:15;3.17;;;1.25;;
49764;SDS011;35657;51.204;-4.130;2023-02-19T10:39:43;4.75;;;0.95;;
49764;SDS011;35657;51.204;-4.130;2023-02-19T10:42:21;7.85;;;1.13;;
49764;SDS011;35657;51.204;-4.130;2023-02-19T10:44:52;3.75;;;1.02;;
49764;SDS011;35657;51.204;-4.130;2023-02-19T10:47:26;1.77;;;0.70;;
49764;SDS011;35657;51.204;-4.130;2023-02-19T10:49:54;7.10;;;1.23;;
49764;SDS011;35657;51.204;-4.130;2023-02-19T10:55:25;6.40;;;1.10;;
49764;SDS011;35657;51.204;-4.130;2023-02-19T10:58:22;4.82;;;1.02;;
49764;SDS011;35657;51.204;-4.130;2023-02-19T11:03:50;8.60;;;0.90;;
49764;SDS011;35657;51.204;-4.130;2023-02-19T11:06:18;2.80;;;0.63;;
49764;SDS011;35657;51.204;-4.130;2023-02-19T11:11:29;2.92;;;0.85;;
49764;SDS011;35657;51.204;-4.130;2023-02-19T11:13:58;6.13;;;0.80;;
49764;SDS011;35657;51.204;-4.130;2023-02-19T11:16:40;3.53;;;0.88;;
49764;SDS011;35657;51.204;-4.130;2023-02-19T11:30:35;4.07;;;1.63;;
49764;SDS011;35657;51.204;-4.130;2023-02-19T11:33:38;1.55;;;0.75;;
49764;SDS011;35657;51.204;-4.130;2023-02-19T11:38:47;16.92;;;5.50;;
49764;SDS011;35657;51.204;-4.130;2023-02-19T11:43:57;70.75;;;12.35;;
49764;SDS011;35657;51.204;-4.130;2023-02-19T11:59:53;8.23;;;2.60;;
49764;SDS011;35657;51.204;-4.130;2023-02-19T12:02:31;2.65;;;0.80;;
49764;SDS011;35657;51.204;-4.130;2023-02-19T12:10:58;2.53;;;0.95;;
49764;SDS011;35657;51.204;-4.130;2023-02-19T12:16:22;2.85;;;0.90;;
49764;SDS011;35657;51.204;-4.130;2023-02-19T12:22:50;0.63;;;0.50;;
49764;SDS011;35657;51.204;-4.130;2023-02-19T12:38:56;8.23;;;2.15;;
49764;SDS011;35657;51.204;-4.130;2023-02-19T12:41:18;6.05;;;2.63;;
49764;SDS011;35657;51.204;-4.130;2023-02-19T12:44:08;6.20;;;3.70;;
49764;SDS011;35657;51.204;-4.130;2023-02-19T12:46:37;6.60;;;3.30;;
49764;SDS011;35657;51.204;-4.130;2023-02-19T12:49:12;6.15;;;2.33;;
49764;SDS011;35657;51.204;-4.130;2023-02-19T12:54:17;4.30;;;2.65;;
49764;SDS011;35657;51.204;-4.130;2023-02-19T12:57:27;7.53;;;4.30;;
49764;SDS011;35657;51.204;-4.130;2023-02-19T13:02:18;1.60;;;1.05;;
49764;SDS011;35657;51.204;-4.130;2023-02-19T13:05:34;1.63;;;1.10;;
49764;SDS011;35657;51.204;-4.130;2023-02-19T13:08:04;1.42;;;0.70;;
49764;SDS011;35657;51.204;-4.130;2023-02-19T13:10:54;7.78;;;1.88;;
49764;SDS011;35657;51.204;-4.130;2023-02-19T13:13:31;6.55;;;1.60;;
49764;SDS011;35657;51.204;-4.130;2023-02-19T13:16:06;3.70;;;1.60;;
49764;SDS011;35657;51.204;-4.130;2023-02-19T13:18:40;1.40;;;0.80;;
49764;SDS011;35657;51.204;-4.130;2023-02-19T13:21:13;2.08;;;1.15;;
49764;SDS011;35657;51.204;-4.130;2023-02-19T13:24:01;3.22;;;1.17;;
49764;SDS011;35657;51.204;-4.130;2023-02-19T13:31:52;0.95;;;0.70;;
49764;SDS011;35657;51.204;-4.130;2023-02-19T13:37:25;0.75;;;0.60;;
49764;SDS011;35657;51.204;-4.130;2023-02-19T13:39:52;1.13;;;0.80;;
49764;SDS011;35657;51.204;-4.130;2023-02-19T13:42:26;5.18;;;0.75;;
49764;SDS011;35657;51.204;-4.130;2023-02-19T13:44:56;0.85;;;0.60;;
49764;SDS011;35657;51.204;-4.130;2023-02-19T13:50:11;1.23;;;0.60;;
49764;SDS011;35657;51.204;-4.130;2023-02-19T13:52:43;0.63;;;0.52;;
49764;SDS011;35657;51.204;-4.130;2023-02-19T14:01:10;3.47;;;0.88;;
49764;SDS011;35657;51.204;-4.130;2023-02-19T14:06:03;4.90;;;0.65;;
49764;SDS011;35657;51.204;-4.130;2023-02-19T14:08:45;2.55;;;1.08;;
49764;SDS011;35657;51.204;-4.130;2023-02-19T14:14:24;0.80;;;0.65;;
49764;SDS011;35657;51.204;-4.130;2023-02-19T14:16:59;0.45;;;0.45;;
49764;SDS011;35657;51.204;-4.130;2023-02-19T14:28:01;1.65;;;0.80;;
49764;SDS011;35657;51.204;-4.130;2023-02-19T14:30:32;3.45;;;0.60;;
49764;SDS011;35657;51.204;-4.130;2023-02-19T14:32:59;5.82;;;0.60;;
49764;SDS011;35657;51.204;-4.130;2023-02-19T14:35:33;1.35;;;1.08;;
49764;SDS011;35657;51.204;-4.130;2023-02-19T14:38:15;1.67;;;0.70;;
49764;SDS011;35657;51.204;-4.130;2023-02-19T14:40:45;9.07;;;1.10;;
49764;SDS011;35657;51.204;-4.130;2023-02-19T14:43:14;3.55;;;0.80;;
49764;SDS011;35657;51.204;-4.130;2023-02-19T14:45:43;9.10;;;2.20;;
49764;SDS011;35657;51.204;-4.130;2023-02-19T14:48:20;2.83;;;1.00;;
49764;SDS011;35657;51.204;-4.130;2023-02-19T14:50:52;2.75;;;1.10;;
49764;SDS011;35657;51.204;-4.130;2023-02-19T14:53:22;3.80;;;1.00;;
49764;SDS011;35657;51.204;-4.130;2023-02-19T14:55:49;0.75;;;0.60;;
49764;SDS011;35657;51.204;-4.130;2023-02-19T14:58:21;4.32;;;1.35;;
49764;SDS011;35657;51.204;-4.130;2023-02-19T15:00:50;8.98;;;1.17;;
49764;SDS011;35657;51.204;-4.130;2023-02-19T15:03:29;6.80;;;0.77;;
49764;SDS011;35657;51.204;-4.130;2023-02-19T15:06:00;6.22;;;1.25;;
49764;SDS011;35657;51.204;-4.130;2023-02-19T15:08:41;2.47;;;0.98;;
49764;SDS011;35657;51.204;-4.130;2023-02-19T15:11:11;4.38;;;0.68;;
49764;SDS011;35657;51.204;-4.130;2023-02-19T15:13:45;3.00;;;0.70;;
49764;SDS011;35657;51.204;-4.130;2023-02-19T15:16:16;2.30;;;0.77;;
49764;SDS011;35657;51.204;-4.130;2023-02-19T15:18:44;5.85;;;1.05;;
49764;SDS011;35657;51.204;-4.130;2023-02-19T15:21:22;2.38;;;0.80;;
49764;SDS011;35657;51.204;-4.130;2023-02-19T15:23:50;3.92;;;1.50;;
49764;SDS011;35657;51.204;-4.130;2023-02-19T15:29:03;2.75;;;0.65;;
49764;SDS011;35657;51.204;-4.130;2023-02-19T15:31:51;1.95;;;0.70;;
49764;SDS011;35657;51.204;-4.130;2023-02-19T15:34:25;1.88;;;0.65;;
49764;SDS011;35657;51.204;-4.130;2023-02-19T15:36:56;1.38;;;0.63;;
49764;SDS011;35657;51.204;-4.130;2023-02-19T15:39:33;4.20;;;0.98;;
49764;SDS011;35657;51.204;-4.130;2023-02-19T15:41:59;4.85;;;1.25;;
49764;SDS011;35657;51.204;-4.130;2023-02-19T15:46:58;2.97;;;1.05;;
49764;SDS011;35657;51.204;-4.130;2023-02-19T15:49:52;3.53;;;1.02;;
49764;SDS011;35657;51.204;-4.130;2023-02-19T15:58:45;2.67;;;0.47;;
49764;SDS011;35657;51.204;-4.130;2023-02-19T16:01:19;0.35;;;0.35;;
49764;SDS011;35657;51.204;-4.130;2023-02-19T16:03:46;1.65;;;0.60;;
49764;SDS011;35657;51.204;-4.130;2023-02-19T16:06:16;9.93;;;1.10;;
49764;SDS011;35657;51.204;-4.130;2023-02-19T16:08:43;3.35;;;0.80;;
49764;SDS011;35657;51.204;-4.130;2023-02-19T16:13:47;1.10;;;0.20;;
49764;SDS011;35657;51.204;-4.130;2023-02-19T16:16:37;3.17;;;1.00;;
49764;SDS011;35657;51.204;-4.130;2023-02-19T16:19:05;3.20;;;0.60;;
49764;SDS011;35657;51.204;-4.130;2023-02-19T16:21:32;1.13;;;0.70;;
49764;SDS011;35657;51.204;-4.130;2023-02-19T16:24:04;4.80;;;0.52;;
49764;SDS011;35657;51.204;-4.130;2023-02-19T16:26:47;1.15;;;0.43;;
49764;SDS011;35657;51.204;-4.130;2023-02-19T16:29:23;1.35;;;0.22;;
49764;SDS011;35657;51.204;-4.130;2023-02-19T16:31:56;0.70;;;0.40;;
49764;SDS011;35657;51.204;-4.130;2023-02-19T16:37:38;1.20;;;0.43;;
49764;SDS011;35657;51.204;-4.130;2023-02-19T16:42:33;0.47;;;0.32;;
49764;SDS011;35657;51.204;-4.130;2023-02-19T16:45:08;0.20;;;0.20;;
49764;SDS011;35657;51.204;-4.130;2023-02-19T16:47:36;0.73;;;0.30;;
49764;SDS011;35657;51.204;-4.130;2023-02-19T16:50:09;0.35;;;0.35;;
49764;SDS011;35657;51.204;-4.130;2023-02-19T16:52:48;0.40;;;0.30;;
49764;SDS011;35657;51.204;-4.130;2023-02-19T16:55:15;1.08;;;0.40;;
49764;SDS011;35657;51.204;-4.130;2023-02-19T16:57:41;0.30;;;0.30;;
49764;SDS011;35657;51.204;-4.130;2023-02-19T17:00:06;1.00;;;0.57;;
49764;SDS011;35657;51.204;-4.130;2023-02-19T17:02:32;0.50;;;0.35;;
49764;SDS011;35657;51.204;-4.130;2023-02-19T17:04:58;1.23;;;0.20;;
49764;SDS011;35657;51.204;-4.130;2023-02-19T17:07:24;0.40;;;0.30;;
49764;SDS011;35657;51.204;-4.130;2023-02-19T17:09:51;0.45;;;0.20;;
49764;SDS011;35657;51.204;-4.130;2023-02-19T17:12:17;1.45;;;0.43;;
49764;SDS011;35657;51.204;-4.130;2023-02-19T17:14:47;0.85;;;0.40;;
49764;SDS011;35657;51.204;-4.130;2023-02-19T17:17:12;1.27;;;0.30;;
49764;SDS011;35657;51.204;-4.130;2023-02-19T17:19:38;0.70;;;0.20;;
49764;SDS011;35657;51.204;-4.130;2023-02-19T17:22:04;0.35;;;0.30;;
49764;SDS011;35657;51.204;-4.130;2023-02-19T17:24:31;0.55;;;0.40;;
49764;SDS011;35657;51.204;-4.130;2023-02-19T17:26:57;1.10;;;0.17;;
49764;SDS011;35657;51.204;-4.130;2023-02-19T17:29:23;3.05;;;0.65;;
49764;SDS011;35657;51.204;-4.130;2023-02-19T17:31:49;0.20;;;0.20;;
49764;SDS011;35657;51.204;-4.130;2023-02-19T17:34:15;1.08;;;0.50;;